createdAt,value
2022-09-29T00:00:36.244Z,2.50
2022-09-29T00:03:02.918Z,1.97
2022-09-29T00:05:30.557Z,2.17
2022-09-29T00:07:57.128Z,2.30
2022-09-29T00:10:23.931Z,1.93
2022-09-29T00:12:50.447Z,4.03
2022-09-29T00:15:17.247Z,2.70
2022-09-29T00:17:58.026Z,3.00
2022-09-29T00:20:30.492Z,1.63
2022-09-29T00:22:56.983Z,2.60
2022-09-29T00:25:23.445Z,2.10
2022-09-29T00:27:49.983Z,2.07
2022-09-29T00:30:16.508Z,2.40
2022-09-29T00:32:43.431Z,2.13
2022-09-29T00:35:10.713Z,2.37
2022-09-29T00:37:37.475Z,2.00
2022-09-29T00:40:04.444Z,2.33
2022-09-29T00:42:32.697Z,2.30
2022-09-29T00:45:07.319Z,2.07
2022-09-29T00:47:36.461Z,1.57
2022-09-29T00:50:14.305Z,2.80
2022-09-29T00:52:44.955Z,2.30
2022-09-29T00:55:17.200Z,2.13
2022-09-29T00:57:47.607Z,1.93
2022-09-29T01:00:15.084Z,2.07
2022-09-29T01:02:48.261Z,2.70
2022-09-29T01:05:21.158Z,2.73
2022-09-29T01:07:47.814Z,2.37
2022-09-29T01:10:17.078Z,2.20
2022-09-29T01:12:45.735Z,2.90
2022-09-29T01:15:14.897Z,2.20
2022-09-29T01:17:41.363Z,2.83
2022-09-29T01:20:15.322Z,2.50
2022-09-29T01:23:19.741Z,2.90
2022-09-29T01:26:08.339Z,2.97
2022-09-29T01:29:00.331Z,1.83
2022-09-29T01:31:38.447Z,2.27
2022-09-29T01:34:21.241Z,1.90
2022-09-29T01:37:12.183Z,2.27
2022-09-29T01:39:43.893Z,2.50
2022-09-29T01:42:16.532Z,2.60
2022-09-29T01:45:13.153Z,3.30
2022-09-29T01:47:46.068Z,2.70
2022-09-29T01:50:16.499Z,2.50
2022-09-29T01:52:46.163Z,3.10
2022-09-29T01:55:17.470Z,2.17
2022-09-29T01:57:57.495Z,6.00
2022-09-29T02:00:24.978Z,5.27
2022-09-29T02:03:10.224Z,4.43
2022-09-29T02:06:02.697Z,4.87
2022-09-29T02:09:01.879Z,2.27
2022-09-29T02:11:29.876Z,2.10
2022-09-29T02:14:04.125Z,2.30
2022-09-29T02:16:32.761Z,2.20
2022-09-29T02:19:11.443Z,2.43
2022-09-29T02:21:37.959Z,2.10
2022-09-29T02:24:04.465Z,2.40
2022-09-29T02:26:34.516Z,2.37
2022-09-29T02:29:05.153Z,2.00
2022-09-29T02:31:32.997Z,2.40
2022-09-29T02:34:01.198Z,2.30
2022-09-29T02:36:34.187Z,2.30
2022-09-29T02:39:21.564Z,2.37
2022-09-29T02:41:54.508Z,2.47
2022-09-29T02:44:30.121Z,2.37
2022-09-29T02:47:20.995Z,2.20
2022-09-29T02:50:19.852Z,3.07
2022-09-29T02:53:02.975Z,3.33
2022-09-29T02:55:37.924Z,1.83
2022-09-29T02:58:16.292Z,3.10
2022-09-29T03:00:42.930Z,2.33
2022-09-29T03:03:09.507Z,2.70
2022-09-29T03:05:36.047Z,3.60
2022-09-29T03:08:02.633Z,3.00
2022-09-29T03:10:30.410Z,2.33
2022-09-29T03:12:57.126Z,2.67
2022-09-29T03:15:23.714Z,3.73
2022-09-29T03:17:50.584Z,3.93
2022-09-29T03:20:17.026Z,3.07
2022-09-29T03:22:43.560Z,3.13
2022-09-29T03:25:14.892Z,4.03
2022-09-29T03:27:41.900Z,2.60
2022-09-29T03:30:09.239Z,2.93
2022-09-29T03:32:35.681Z,2.93
2022-09-29T03:35:02.382Z,3.37
2022-09-29T03:37:28.914Z,2.20
2022-09-29T03:39:55.387Z,2.87
2022-09-29T03:42:24.216Z,2.37
2022-09-29T03:44:50.873Z,3.30
2022-09-29T03:47:17.306Z,3.97
2022-09-29T03:49:43.790Z,3.70
2022-09-29T03:52:10.261Z,3.43
2022-09-29T03:54:36.920Z,2.60
2022-09-29T03:57:03.654Z,2.37
2022-09-29T03:59:30.133Z,3.27
2022-09-29T04:01:56.776Z,3.70
2022-09-29T04:04:23.316Z,2.60
2022-09-29T04:06:50.042Z,2.60
2022-09-29T04:09:17.133Z,2.90
2022-09-29T04:11:43.716Z,3.17
2022-09-29T04:14:10.222Z,2.60
2022-09-29T04:16:36.816Z,3.40
2022-09-29T04:19:03.722Z,4.70
2022-09-29T04:21:30.140Z,7.70
2022-09-29T04:23:56.803Z,5.13
2022-09-29T04:26:23.319Z,3.60
2022-09-29T04:28:49.881Z,4.00
2022-09-29T04:31:16.668Z,2.90
2022-09-29T04:33:43.135Z,3.80
2022-09-29T04:36:09.966Z,3.03
2022-09-29T04:38:36.492Z,3.23
2022-09-29T04:41:03.650Z,3.30
2022-09-29T04:43:30.147Z,2.77
2022-09-29T04:46:07.450Z,3.07
2022-09-29T04:48:35.972Z,3.17
2022-09-29T04:51:03.641Z,3.23
2022-09-29T04:53:30.428Z,3.07
2022-09-29T04:55:56.971Z,3.73
2022-09-29T04:58:23.415Z,2.90
2022-09-29T05:00:50.078Z,3.97
2022-09-29T05:03:16.837Z,3.73
2022-09-29T05:05:43.375Z,4.80
2022-09-29T05:08:10.098Z,4.87
2022-09-29T05:10:36.837Z,5.00
2022-09-29T05:13:03.316Z,5.13
2022-09-29T05:15:29.828Z,4.50
2022-09-29T05:17:56.251Z,4.60
2022-09-29T05:20:22.779Z,3.93
2022-09-29T05:22:49.234Z,4.27
2022-09-29T05:25:15.770Z,7.20
2022-09-29T05:27:42.295Z,7.23
2022-09-29T05:30:09.172Z,6.83
2022-09-29T05:32:35.828Z,7.20
2022-09-29T05:35:03.431Z,6.37
2022-09-29T05:37:30.127Z,6.47
2022-09-29T05:39:56.636Z,6.10
2022-09-29T05:42:25.893Z,5.07
2022-09-29T05:44:52.351Z,6.57
2022-09-29T05:47:18.987Z,6.77
2022-09-29T05:49:45.479Z,6.23
2022-09-29T05:52:12.017Z,7.67
2022-09-29T05:54:38.451Z,6.70
2022-09-29T05:57:05.008Z,5.77
2022-09-29T05:59:31.475Z,6.10
2022-09-29T06:01:58.043Z,6.60
2022-09-29T06:04:24.785Z,6.07
2022-09-29T06:06:51.255Z,5.97
2022-09-29T06:09:18.376Z,6.20
2022-09-29T06:11:44.832Z,6.50
2022-09-29T06:14:11.442Z,5.57
2022-09-29T06:16:38.011Z,5.40
2022-09-29T06:19:04.870Z,4.40
2022-09-29T06:21:33.935Z,4.70
2022-09-29T06:24:00.511Z,5.63
2022-09-29T06:26:27.548Z,5.30
2022-09-29T06:28:54.985Z,5.37
2022-09-29T06:31:24.200Z,4.43
2022-09-29T06:33:51.038Z,4.40
2022-09-29T06:36:39.389Z,4.93
2022-09-29T06:39:07.337Z,4.50
2022-09-29T06:41:35.281Z,4.00
2022-09-29T06:44:02.327Z,4.60
2022-09-29T06:46:29.139Z,5.90
2022-09-29T06:48:56.200Z,6.20
2022-09-29T06:51:26.191Z,7.67
2022-09-29T06:54:09.932Z,4.80
2022-09-29T06:56:38.404Z,4.60
2022-09-29T06:59:05.026Z,4.13
2022-09-29T07:01:31.655Z,3.97
2022-09-29T07:04:00.673Z,4.03
2022-09-29T07:06:27.313Z,4.70
2022-09-29T07:08:54.722Z,4.80
2022-09-29T07:11:21.500Z,5.27
2022-09-29T07:13:51.174Z,4.47
2022-09-29T07:16:21.065Z,3.93
2022-09-29T07:18:48.648Z,5.20
2022-09-29T07:21:18.995Z,4.50
2022-09-29T07:23:46.852Z,4.60
2022-09-29T07:26:14.436Z,4.37
2022-09-29T07:28:41.095Z,3.80
2022-09-29T07:31:15.544Z,4.40
2022-09-29T07:33:46.696Z,4.73
2022-09-29T07:36:14.309Z,4.47
2022-09-29T07:38:41.261Z,4.87
2022-09-29T07:41:13.279Z,4.50
2022-09-29T07:43:40.140Z,3.50
2022-09-29T07:46:07.415Z,3.30
2022-09-29T07:48:35.087Z,2.97
2022-09-29T07:51:07.149Z,3.20
2022-09-29T07:53:34.985Z,3.00
2022-09-29T07:56:08.606Z,4.00
2022-09-29T07:58:35.569Z,4.13
2022-09-29T08:01:05.395Z,3.83
2022-09-29T08:03:33.031Z,3.80
2022-09-29T08:05:59.767Z,3.40
2022-09-29T08:08:26.988Z,3.27
2022-09-29T08:11:01.899Z,3.43
2022-09-29T08:13:28.434Z,3.60
2022-09-29T08:16:02.622Z,2.47
2022-09-29T08:18:30.036Z,2.40
2022-09-29T08:20:58.792Z,2.57
2022-09-29T08:23:28.240Z,2.97
2022-09-29T08:26:08.997Z,2.90
2022-09-29T08:28:37.169Z,3.40
2022-09-29T08:31:05.498Z,3.80
2022-09-29T08:33:33.326Z,4.00
2022-09-29T08:36:01.007Z,3.70
2022-09-29T08:38:28.076Z,3.70
2022-09-29T08:40:55.443Z,3.97
2022-09-29T08:43:52.063Z,3.83
2022-09-29T08:46:35.304Z,3.77
2022-09-29T08:49:07.193Z,4.00
2022-09-29T08:51:42.735Z,3.90
2022-09-29T08:54:39.319Z,3.90
2022-09-29T08:57:07.018Z,3.60
2022-09-29T08:59:33.689Z,4.27
2022-09-29T09:02:02.921Z,3.40
2022-09-29T09:05:08.188Z,3.30
2022-09-29T09:07:40.772Z,3.30
2022-09-29T09:10:20.687Z,3.40
2022-09-29T09:12:51.334Z,3.27
2022-09-29T09:15:30.056Z,3.97
2022-09-29T09:18:20.338Z,3.17
2022-09-29T09:21:03.044Z,2.90
2022-09-29T09:24:08.447Z,3.13
2022-09-29T09:26:43.733Z,3.00
2022-09-29T09:29:13.271Z,3.43
2022-09-29T09:31:43.740Z,3.20
2022-09-29T09:34:17.937Z,3.20
2022-09-29T09:37:04.201Z,3.47
2022-09-29T09:39:54.720Z,3.23
2022-09-29T09:42:27.963Z,3.30
2022-09-29T09:44:59.565Z,3.93
2022-09-29T09:47:28.694Z,3.37
2022-09-29T09:49:58.247Z,4.67
2022-09-29T09:52:29.771Z,4.90
2022-09-29T09:55:06.975Z,4.23
2022-09-29T09:57:45.266Z,3.77
2022-09-29T10:00:14.234Z,4.10
2022-09-29T10:02:47.744Z,3.17
2022-09-29T10:05:17.405Z,3.23
2022-09-29T10:07:44.775Z,3.00
2022-09-29T10:10:30.927Z,3.37
2022-09-29T10:13:15.092Z,2.70
2022-09-29T10:15:53.589Z,3.67
2022-09-29T10:18:30.487Z,3.40
2022-09-29T10:20:57.074Z,3.33
2022-09-29T10:23:36.367Z,3.30
2022-09-29T10:26:12.132Z,3.83
2022-09-29T10:28:42.648Z,3.10
2022-09-29T10:31:35.332Z,3.07
2022-09-29T10:34:23.249Z,3.00
2022-09-29T10:36:56.553Z,3.40
2022-09-29T10:39:38.388Z,3.07
2022-09-29T10:42:16.288Z,2.77
2022-09-29T10:44:42.974Z,4.03
2022-09-29T10:47:14.833Z,3.40
2022-09-29T10:49:41.341Z,3.00
2022-09-29T10:52:17.903Z,3.10
2022-09-29T10:54:58.024Z,3.33
2022-09-29T10:57:28.495Z,3.97
2022-09-29T10:59:56.145Z,3.30
2022-09-29T11:02:35.126Z,3.13
2022-09-29T11:05:05.923Z,3.07
2022-09-29T11:07:34.225Z,3.33
2022-09-29T11:10:01.296Z,2.90
2022-09-29T11:12:39.022Z,3.10
2022-09-29T11:15:25.203Z,3.27
2022-09-29T11:17:52.451Z,3.37
2022-09-29T11:20:19.243Z,9.30
2022-09-29T11:23:13.192Z,11.50
2022-09-29T11:25:50.227Z,4.00
2022-09-29T11:28:34.321Z,3.70
2022-09-29T11:31:30.734Z,3.57
2022-09-29T11:34:06.199Z,3.37
2022-09-29T11:36:42.671Z,3.00
2022-09-29T11:39:31.407Z,4.27
2022-09-29T11:42:33.219Z,3.60
2022-09-29T11:45:01.382Z,3.50
2022-09-29T11:47:55.922Z,3.17
2022-09-29T11:50:36.688Z,3.80
2022-09-29T11:53:07.582Z,4.80
2022-09-29T11:55:55.668Z,3.77
2022-09-29T11:58:46.144Z,4.00
2022-09-29T12:01:40.797Z,3.30
2022-09-29T12:04:38.082Z,2.70
2022-09-29T12:07:23.139Z,3.30
2022-09-29T12:10:26.577Z,3.80
2022-09-29T12:13:06.880Z,3.70
2022-09-29T12:15:40.987Z,3.47
2022-09-29T12:18:14.186Z,2.80
2022-09-29T12:20:44.182Z,3.20
2022-09-29T12:23:14.095Z,3.40
2022-09-29T12:26:04.826Z,3.57
2022-09-29T12:28:37.059Z,2.93
2022-09-29T12:31:10.716Z,3.17
2022-09-29T12:33:43.873Z,3.60
2022-09-29T12:36:44.193Z,2.73
2022-09-29T12:39:18.499Z,3.10
2022-09-29T12:41:49.838Z,2.67
2022-09-29T12:44:31.729Z,3.30
2022-09-29T12:47:04.799Z,3.30
2022-09-29T12:49:40.030Z,3.10
2022-09-29T12:52:16.422Z,3.73
2022-09-29T12:54:47.557Z,3.23
2022-09-29T12:57:27.045Z,4.07
2022-09-29T13:00:04.751Z,4.20
2022-09-29T13:02:56.139Z,3.90
2022-09-29T13:05:37.761Z,4.67
2022-09-29T13:08:19.565Z,4.27
2022-09-29T13:10:54.846Z,3.90
2022-09-29T13:13:48.230Z,6.23
2022-09-29T13:16:23.415Z,5.43
2022-09-29T13:19:20.441Z,6.30
2022-09-29T13:21:57.294Z,6.37
2022-09-29T13:24:44.156Z,6.00
2022-09-29T13:27:17.395Z,6.03
2022-09-29T13:29:57.560Z,5.73
2022-09-29T13:32:24.263Z,6.60
2022-09-29T13:34:57.066Z,6.20
2022-09-29T13:37:25.739Z,6.50
2022-09-29T13:40:01.355Z,6.90
2022-09-29T13:42:46.288Z,7.33
2022-09-29T13:45:30.652Z,6.20
2022-09-29T13:48:01.960Z,6.57
2022-09-29T13:50:45.011Z,5.70
2022-09-29T13:53:31.096Z,9.20
2022-09-29T13:56:03.564Z,7.93
2022-09-29T13:58:32.566Z,7.83
2022-09-29T14:01:01.230Z,7.67
2022-09-29T14:03:35.850Z,7.60
2022-09-29T14:06:39.809Z,7.30
2022-09-29T14:09:18.336Z,6.80
2022-09-29T14:11:49.948Z,7.63
2022-09-29T14:14:17.876Z,9.20
2022-09-29T14:16:58.491Z,7.43
2022-09-29T14:19:45.416Z,7.70
2022-09-29T14:22:30.100Z,8.60
2022-09-29T14:25:09.859Z,9.53
2022-09-29T14:27:58.609Z,7.37
2022-09-29T14:30:41.267Z,7.67
2022-09-29T14:33:25.221Z,8.20
2022-09-29T14:36:00.907Z,7.60
2022-09-29T14:38:33.762Z,6.60
2022-09-29T14:41:17.730Z,8.67
2022-09-29T14:43:50.169Z,6.80
2022-09-29T14:47:06.267Z,6.53
2022-09-29T14:50:13.000Z,6.90
2022-09-29T14:52:57.456Z,6.43
2022-09-29T14:55:42.168Z,52.97
2022-09-29T14:58:36.870Z,15.00
2022-09-29T15:01:16.270Z,16.20
2022-09-29T15:03:48.605Z,17.00
2022-09-29T15:06:20.907Z,11.47
2022-09-29T15:09:13.347Z,13.87
2022-09-29T15:11:54.274Z,10.37
2022-09-29T15:14:20.831Z,21.63
2022-09-29T15:16:55.855Z,10.47
2022-09-29T15:19:56.438Z,9.23
2022-09-29T15:22:41.816Z,12.40
2022-09-29T15:25:29.861Z,10.70
2022-09-29T15:28:03.934Z,7.33
2022-09-29T15:30:31.438Z,10.90
2022-09-29T15:35:49.529Z,29.17
2022-09-29T15:38:18.354Z,58.07
2022-09-29T15:40:53.179Z,52.93
2022-09-29T15:43:28.844Z,12.77
2022-09-29T15:46:00.574Z,30.13
2022-09-29T15:48:28.804Z,16.07
2022-09-29T15:50:55.906Z,16.80
2022-09-29T15:53:24.557Z,8.30
2022-09-29T15:55:52.059Z,8.60
2022-09-29T15:58:27.409Z,24.53
2022-09-29T16:01:02.760Z,11.50
2022-09-29T16:03:43.303Z,14.87
2022-09-29T16:06:14.877Z,25.93
2022-09-29T16:08:47.617Z,33.57
2022-09-29T16:11:22.988Z,16.50
2022-09-29T16:13:54.645Z,10.50
2022-09-29T16:16:27.517Z,7.50
2022-09-29T16:18:58.192Z,17.53
2022-09-29T16:21:25.264Z,16.10
2022-09-29T16:24:18.125Z,9.03
2022-09-29T16:26:50.157Z,4.57
2022-09-29T16:29:19.680Z,6.13
2022-09-29T16:31:47.915Z,12.97
2022-09-29T16:34:34.908Z,14.50
2022-09-29T16:37:06.290Z,8.20
2022-09-29T16:39:44.368Z,22.87
2022-09-29T16:42:18.260Z,5.23
2022-09-29T16:44:45.199Z,9.00
2022-09-29T16:47:17.219Z,19.13
2022-09-29T16:49:55.220Z,8.83
2022-09-29T16:52:27.095Z,12.57
2022-09-29T16:55:06.765Z,11.27
2022-09-29T16:57:34.501Z,7.47
2022-09-29T17:00:05.921Z,11.50
2022-09-29T17:02:32.498Z,5.70
2022-09-29T17:05:01.324Z,7.27
2022-09-29T17:07:28.481Z,7.50
2022-09-29T17:10:01.386Z,7.10
2022-09-29T17:12:29.099Z,8.50
2022-09-29T17:14:55.598Z,14.67
2022-09-29T17:17:24.905Z,10.00
2022-09-29T17:19:53.031Z,8.73
2022-09-29T17:22:37.204Z,7.37
2022-09-29T17:25:04.224Z,8.10
2022-09-29T17:27:48.951Z,6.83
2022-09-29T17:30:20.898Z,7.27
2022-09-29T17:32:48.292Z,7.73
2022-09-29T17:35:19.264Z,6.77
2022-09-29T17:37:49.914Z,8.83
2022-09-29T17:40:26.852Z,8.63
2022-09-29T17:42:56.986Z,7.60
2022-09-29T17:45:23.808Z,7.63
2022-09-29T17:47:50.288Z,7.27
2022-09-29T17:50:36.907Z,8.37
2022-09-29T17:53:04.485Z,7.70
2022-09-29T17:55:31.693Z,7.43
2022-09-29T17:57:58.609Z,7.63
2022-09-29T18:00:25.970Z,8.13
2022-09-29T18:02:57.016Z,6.93
2022-09-29T18:05:25.427Z,8.40
2022-09-29T18:07:53.106Z,7.10
2022-09-29T18:10:25.349Z,8.33
2022-09-29T18:12:51.960Z,7.10
2022-09-29T18:15:18.455Z,7.83
2022-09-29T18:17:45.347Z,7.93
2022-09-29T18:20:13.792Z,9.43
2022-09-29T18:22:40.579Z,7.80
2022-09-29T18:25:08.045Z,8.90
2022-09-29T18:27:35.566Z,7.33
2022-09-29T18:30:03.531Z,7.50
2022-09-29T18:32:30.257Z,8.50
2022-09-29T18:34:56.738Z,8.03
2022-09-29T18:37:23.242Z,8.03
2022-09-29T18:39:49.673Z,8.80
2022-09-29T18:42:16.410Z,7.67
2022-09-29T18:44:42.860Z,6.70
2022-09-29T18:47:12.888Z,7.10
2022-09-29T18:49:39.623Z,7.10
2022-09-29T18:52:06.324Z,8.00
2022-09-29T18:54:33.441Z,7.93
2022-09-29T18:57:01.362Z,8.50
2022-09-29T18:59:28.049Z,10.03
2022-09-29T19:01:54.920Z,7.53
2022-09-29T19:04:22.249Z,9.07
2022-09-29T19:06:49.507Z,10.27
2022-09-29T19:09:16.054Z,9.60
2022-09-29T19:11:43.328Z,8.67
2022-09-29T19:14:09.862Z,9.87
2022-09-29T19:16:37.112Z,8.00
2022-09-29T19:19:04.606Z,9.63
2022-09-29T19:21:32.610Z,10.40
2022-09-29T19:23:59.238Z,10.30
2022-09-29T19:26:25.722Z,9.83
2022-09-29T19:28:52.350Z,10.70
2022-09-29T19:31:20.850Z,11.67
2022-09-29T19:33:48.163Z,10.57
2022-09-29T19:36:18.194Z,9.83
2022-09-29T19:38:44.998Z,9.80
2022-09-29T19:41:21.848Z,11.53
2022-09-29T19:43:48.769Z,12.27
2022-09-29T19:46:16.468Z,12.00
2022-09-29T19:48:47.035Z,10.80
2022-09-29T19:51:36.373Z,11.63
2022-09-29T19:54:11.955Z,9.77
2022-09-29T19:56:40.003Z,11.40
2022-09-29T19:59:10.156Z,11.47
2022-09-29T20:01:37.423Z,10.07
2022-09-29T20:04:03.971Z,10.67
2022-09-29T20:06:30.522Z,11.43
2022-09-29T20:08:57.141Z,14.47
2022-09-29T20:11:23.714Z,10.80
2022-09-29T20:13:50.166Z,11.73
2022-09-29T20:16:16.737Z,12.23
2022-09-29T20:18:48.032Z,10.90
2022-09-29T20:21:15.427Z,10.43
2022-09-29T20:23:41.923Z,10.20
2022-09-29T20:26:11.500Z,9.97
2022-09-29T20:28:38.209Z,11.90
2022-09-29T20:31:06.232Z,11.40
2022-09-29T20:33:39.458Z,10.10
2022-09-29T20:36:06.309Z,9.93
2022-09-29T20:38:36.656Z,10.03
2022-09-29T20:41:03.742Z,11.07
2022-09-29T20:43:30.464Z,10.30
2022-09-29T20:46:04.463Z,9.50
2022-09-29T20:48:31.979Z,10.90
2022-09-29T20:51:01.905Z,10.20
2022-09-29T20:53:28.921Z,10.60
2022-09-29T20:56:06.541Z,9.93
2022-09-29T20:58:35.193Z,9.10
2022-09-29T21:01:29.362Z,9.77
2022-09-29T21:04:05.547Z,10.00
2022-09-29T21:06:34.298Z,9.50
2022-09-29T21:09:01.368Z,10.00
2022-09-29T21:11:27.821Z,10.73
2022-09-29T21:13:58.399Z,9.23
2022-09-29T21:16:25.679Z,11.10
2022-09-29T21:18:55.538Z,9.53
2022-09-29T21:21:22.330Z,10.20
2022-09-29T21:23:50.531Z,10.80
2022-09-29T21:26:18.940Z,9.30
2022-09-29T21:29:00.167Z,9.63
2022-09-29T21:31:28.913Z,10.23
2022-09-29T21:33:57.393Z,11.40
2022-09-29T21:36:25.972Z,9.57
2022-09-29T21:38:53.165Z,10.27
2022-09-29T21:41:22.583Z,10.67
2022-09-29T21:43:50.989Z,10.13
2022-09-29T21:46:19.714Z,11.20
2022-09-29T21:48:49.950Z,11.40
2022-09-29T21:51:18.476Z,12.20
2022-09-29T21:53:45.376Z,12.37
2022-09-29T21:56:16.885Z,11.50
2022-09-29T21:58:43.809Z,11.37
2022-09-29T22:01:11.474Z,11.73
2022-09-29T22:03:42.740Z,11.10
2022-09-29T22:06:12.335Z,12.00
2022-09-29T22:08:38.818Z,13.57
2022-09-29T22:11:05.505Z,11.00
2022-09-29T22:13:32.757Z,12.40
2022-09-29T22:16:06.862Z,11.57
2022-09-29T22:18:41.518Z,11.87
2022-09-29T22:21:12.508Z,12.40
2022-09-29T22:23:39.024Z,12.00
2022-09-29T22:26:05.909Z,10.90
2022-09-29T22:28:32.402Z,11.63
2022-09-29T22:31:08.680Z,14.03
2022-09-29T22:33:36.565Z,11.73
2022-09-29T22:36:04.433Z,10.73
2022-09-29T22:38:31.495Z,11.53
2022-09-29T22:40:58.003Z,12.30
2022-09-29T22:43:24.474Z,11.10
2022-09-29T22:45:51.820Z,12.30
2022-09-29T22:48:19.111Z,12.27
2022-09-29T22:50:47.756Z,11.60
2022-09-29T22:53:15.200Z,10.50
2022-09-29T22:55:42.400Z,14.47
2022-09-29T22:58:10.215Z,10.97
2022-09-29T23:00:40.724Z,11.83
2022-09-29T23:03:10.862Z,10.63
2022-09-29T23:05:38.358Z,11.63
2022-09-29T23:08:05.159Z,10.70
2022-09-29T23:10:31.852Z,11.60
2022-09-29T23:12:59.063Z,9.90
2022-09-29T23:15:25.628Z,11.10
2022-09-29T23:17:52.243Z,9.70
2022-09-29T23:20:18.716Z,9.60
2022-09-29T23:22:45.320Z,9.67
2022-09-29T23:25:12.577Z,9.50
2022-09-29T23:27:39.093Z,12.20
2022-09-29T23:30:05.910Z,9.50
2022-09-29T23:32:32.530Z,11.43
2022-09-29T23:34:59.618Z,10.70
2022-09-29T23:37:46.086Z,10.73
2022-09-29T23:40:13.698Z,10.50
2022-09-29T23:42:40.166Z,10.23
2022-09-29T23:45:06.917Z,9.67
2022-09-29T23:47:33.991Z,9.97
2022-09-29T23:50:01.970Z,10.50
2022-09-29T23:52:28.516Z,10.60
2022-09-29T23:54:54.996Z,10.20
2022-09-29T23:57:21.451Z,9.70
2022-09-29T23:59:47.917Z,8.67
